sensor_id;sensor_type;location;lat;lon;timestamp;pressure;altitude;pressure_sealevel;temperature;humidity
48800;BME280;34611;47.964;7.982;2023-04-26T00:02:04;96803.97;;;11.49;64.92
48800;BME280;34611;47.964;7.982;2023-04-26T00:09:04;96813.41;;;11.50;64.96
48800;BME280;34611;47.964;7.982;2023-04-26T00:16:05;96802.97;;;11.50;64.83
48800;BME280;34611;47.964;7.982;2023-04-26T00:23:06;96809.03;;;11.50;64.95
48800;BME280;34611;47.964;7.982;2023-04-26T00:30:08;96802.03;;;11.51;64.94
48800;BME280;34611;47.964;7.982;2023-04-26T00:37:09;96807.25;;;11.51;64.79
48800;BME280;34611;47.964;7.982;2023-04-26T00:44:09;96801.22;;;11.50;65.02
48800;BME280;34611;47.964;7.982;2023-04-26T00:51:10;96819.28;;;11.52;64.88
48800;BME280;34611;47.964;7.982;2023-04-26T00:58:10;96818.59;;;11.50;64.78
48800;BME280;34611;47.964;7.982;2023-04-26T01:05:11;96829.84;;;11.50;64.95
48800;BME280;34611;47.964;7.982;2023-04-26T01:12:11;96817.66;;;11.51;64.79
48800;BME280;34611;47.964;7.982;2023-04-26T01:19:18;96821.19;;;11.50;64.78
48800;BME280;34611;47.964;7.982;2023-04-26T01:26:19;96803.81;;;11.50;64.91
48800;BME280;34611;47.964;7.982;2023-04-26T01:33:20;96808.06;;;11.51;64.92
48800;BME280;34611;47.964;7.982;2023-04-26T01:40:20;96793.41;;;11.50;64.99
48800;BME280;34611;47.964;7.982;2023-04-26T01:47:21;96778.63;;;11.51;64.77
48800;BME280;34611;47.964;7.982;2023-04-26T01:54:21;96770.00;;;11.50;64.88
48800;BME280;34611;47.964;7.982;2023-04-26T02:01:21;96785.59;;;11.50;64.97
48800;BME280;34611;47.964;7.982;2023-04-26T02:08:22;96785.59;;;11.50;64.86
48800;BME280;34611;47.964;7.982;2023-04-26T02:15:22;96783.13;;;11.49;64.77
48800;BME280;34611;47.964;7.982;2023-04-26T02:22:23;96789.97;;;11.50;64.98
48800;BME280;34611;47.964;7.982;2023-04-26T02:29:24;96792.56;;;11.50;64.94
48800;BME280;34611;47.964;7.982;2023-04-26T02:36:24;96793.53;;;11.49;64.97
48800;BME280;34611;47.964;7.982;2023-04-26T02:43:26;96783.13;;;11.49;64.73
48800;BME280;34611;47.964;7.982;2023-04-26T02:50:26;96779.44;;;11.51;64.83
48800;BME280;34611;47.964;7.982;2023-04-26T02:57:27;96789.16;;;11.49;64.77
48800;BME280;34611;47.964;7.982;2023-04-26T03:04:27;96781.22;;;11.51;65.02
48800;BME280;34611;47.964;7.982;2023-04-26T03:11:29;96777.78;;;11.50;64.95
48800;BME280;34611;47.964;7.982;2023-04-26T03:18:30;96776.94;;;11.50;64.83
48800;BME280;34611;47.964;7.982;2023-04-26T03:25:30;96769.16;;;11.50;64.89
48800;BME280;34611;47.964;7.982;2023-04-26T03:32:32;96774.34;;;11.50;64.97
48800;BME280;34611;47.964;7.982;2023-04-26T03:39:32;96771.75;;;11.50;64.86
48800;BME280;34611;47.964;7.982;2023-04-26T03:46:32;96754.50;;;11.49;64.84
48800;BME280;34611;47.964;7.982;2023-04-26T03:53:33;96758.72;;;11.50;64.78
48800;BME280;34611;47.964;7.982;2023-04-26T04:00:35;96758.72;;;11.50;64.97
48800;BME280;34611;47.964;7.982;2023-04-26T04:07:36;96753.53;;;11.50;64.86
48800;BME280;34611;47.964;7.982;2023-04-26T04:14:36;96752.72;;;11.49;64.86
48800;BME280;34611;47.964;7.982;2023-04-26T04:21:37;96756.13;;;11.50;64.94
48800;BME280;34611;47.964;7.982;2023-04-26T04:28:39;96759.69;;;11.49;64.73
48800;BME280;34611;47.964;7.982;2023-04-26T04:35:44;96758.72;;;11.50;64.93
48800;BME280;34611;47.964;7.982;2023-04-26T04:42:44;96766.69;;;11.48;64.85
48800;BME280;34611;47.964;7.982;2023-04-26T04:49:46;96773.41;;;11.31;62.36
48800;BME280;34611;47.964;7.982;2023-04-26T04:56:47;96770.66;;;11.23;61.97
48800;BME280;34611;47.964;7.982;2023-04-26T05:03:49;96774.88;;;11.24;61.50
48800;BME280;34611;47.964;7.982;2023-04-26T05:10:49;96778.72;;;11.20;61.38
48800;BME280;34611;47.964;7.982;2023-04-26T05:17:49;96794.44;;;11.19;61.13
48800;BME280;34611;47.964;7.982;2023-04-26T05:24:54;96787.88;;;11.14;60.84
48800;BME280;34611;47.964;7.982;2023-04-26T05:31:54;96799.81;;;11.17;61.08
48800;BME280;34611;47.964;7.982;2023-04-26T05:39:15;96799.81;;;11.17;60.81
48800;BME280;34611;47.964;7.982;2023-04-26T05:46:16;96806.63;;;11.18;60.99
48800;BME280;34611;47.964;7.982;2023-04-26T05:53:17;96825.13;;;11.15;61.12
48800;BME280;34611;47.964;7.982;2023-04-26T06:00:18;96828.66;;;11.14;60.76
48800;BME280;34611;47.964;7.982;2023-04-26T06:07:22;96847.84;;;11.13;60.98
48800;BME280;34611;47.964;7.982;2023-04-26T06:14:22;96844.28;;;11.14;60.80
48800;BME280;34611;47.964;7.982;2023-04-26T06:21:23;96846.88;;;11.14;60.86
48800;BME280;34611;47.964;7.982;2023-04-26T06:28:27;96847.56;;;11.16;60.88
48800;BME280;34611;47.964;7.982;2023-04-26T06:35:27;96851.97;;;11.16;61.31
48800;BME280;34611;47.964;7.982;2023-04-26T06:42:28;96836.47;;;11.14;61.26
48800;BME280;34611;47.964;7.982;2023-04-26T06:49:48;96831.28;;;11.14;61.13
48800;BME280;34611;47.964;7.982;2023-04-26T06:56:48;96836.34;;;11.16;61.30
48800;BME280;34611;47.964;7.982;2023-04-26T07:03:48;96823.34;;;11.16;61.38
48800;BME280;34611;47.964;7.982;2023-04-26T07:10:48;96825.13;;;11.15;61.14
48800;BME280;34611;47.964;7.982;2023-04-26T07:17:49;96822.66;;;11.13;61.14
48800;BME280;34611;47.964;7.982;2023-04-26T07:24:49;96815.41;;;11.17;61.45
48800;BME280;34611;47.964;7.982;2023-04-26T07:31:49;96817.16;;;11.17;61.38
48800;BME280;34611;47.964;7.982;2023-04-26T07:38:50;96803.50;;;11.14;60.78
48800;BME280;34611;47.964;7.982;2023-04-26T07:45:50;96804.31;;;11.15;60.89
48800;BME280;34611;47.964;7.982;2023-04-26T07:52:51;96798.28;;;11.14;60.64
48800;BME280;34611;47.964;7.982;2023-04-26T07:59:51;96801.72;;;11.15;60.43
48800;BME280;34611;47.964;7.982;2023-04-26T08:06:51;96802.41;;;11.17;60.91
48800;BME280;34611;47.964;7.982;2023-04-26T08:13:52;96803.22;;;11.18;61.03
48800;BME280;34611;47.964;7.982;2023-04-26T08:20:52;96812.81;;;11.17;60.89
48800;BME280;34611;47.964;7.982;2023-04-26T08:27:55;96800.75;;;11.16;60.55
48800;BME280;34611;47.964;7.982;2023-04-26T08:34:55;96794.44;;;11.19;60.93
48800;BME280;34611;47.964;7.982;2023-04-26T08:41:57;96798.88;;;11.28;61.41
48800;BME280;34611;47.964;7.982;2023-04-26T08:49:03;96795.56;;;11.26;62.00
48800;BME280;34611;47.964;7.982;2023-04-26T08:56:04;96789.56;;;11.25;62.58
48800;BME280;34611;47.964;7.982;2023-04-26T09:03:06;96787.63;;;11.27;62.39
48800;BME280;34611;47.964;7.982;2023-04-26T09:10:07;96795.44;;;11.27;62.61
48800;BME280;34611;47.964;7.982;2023-04-26T09:24:49;96794.47;;;11.28;62.80
48800;BME280;34611;47.964;7.982;2023-04-26T09:31:51;96787.47;;;11.29;62.66
48800;BME280;34611;47.964;7.982;2023-04-26T09:38:51;96787.47;;;11.29;62.99
48800;BME280;34611;47.964;7.982;2023-04-26T09:45:52;96774.63;;;11.47;62.29
48800;BME280;34611;47.964;7.982;2023-04-26T09:52:53;96776.72;;;11.92;57.50
48800;BME280;34611;47.964;7.982;2023-04-26T09:59:53;96771.47;;;12.02;56.29
48800;BME280;34611;47.964;7.982;2023-04-26T10:06:55;96774.25;;;12.00;56.51
48800;BME280;34611;47.964;7.982;2023-04-26T10:13:56;96771.47;;;12.02;56.43
48800;BME280;34611;47.964;7.982;2023-04-26T10:21:01;96770.66;;;12.01;56.54
48800;BME280;34611;47.964;7.982;2023-04-26T10:28:04;96770.66;;;12.01;56.61
48800;BME280;34611;47.964;7.982;2023-04-26T10:35:11;96757.09;;;12.07;56.80
48800;BME280;34611;47.964;7.982;2023-04-26T10:49:24;96756.00;;;11.61;58.86
48800;BME280;34611;47.964;7.982;2023-04-26T11:03:25;96758.72;;;11.50;60.09
48800;BME280;34611;47.964;7.982;2023-04-26T11:10:25;96751.06;;;11.48;60.16
48800;BME280;34611;47.964;7.982;2023-04-26T11:17:25;96744.22;;;11.47;60.33
48800;BME280;34611;47.964;7.982;2023-04-26T11:24:26;96753.81;;;11.47;60.81
48800;BME280;34611;47.964;7.982;2023-04-26T11:31:26;96735.59;;;11.47;61.00
48800;BME280;34611;47.964;7.982;2023-04-26T11:38:29;96743.53;;;11.45;60.99
48800;BME280;34611;47.964;7.982;2023-04-26T11:45:30;96733.97;;;11.46;61.08
48800;BME280;34611;47.964;7.982;2023-04-26T11:52:31;96737.50;;;11.45;61.08
48800;BME280;34611;47.964;7.982;2023-04-26T11:59:31;96743.69;;;11.44;61.22
48800;BME280;34611;47.964;7.982;2023-04-26T12:06:41;96737.50;;;11.45;61.43
48800;BME280;34611;47.964;7.982;2023-04-26T12:13:42;96732.31;;;11.45;61.39
48800;BME280;34611;47.964;7.982;2023-04-26T12:20:42;96729.69;;;11.45;61.46
48800;BME280;34611;47.964;7.982;2023-04-26T12:27:43;96720.09;;;11.45;61.64
48800;BME280;34611;47.964;7.982;2023-04-26T12:34:43;96718.47;;;11.44;61.50
48800;BME280;34611;47.964;7.982;2023-04-26T12:41:43;96716.00;;;11.43;61.58
48800;BME280;34611;47.964;7.982;2023-04-26T12:48:45;96697.66;;;11.44;61.53
48800;BME280;34611;47.964;7.982;2023-04-26T12:55:45;96704.66;;;11.44;61.66
48800;BME280;34611;47.964;7.982;2023-04-26T13:02:45;96692.56;;;11.43;61.78
48800;BME280;34611;47.964;7.982;2023-04-26T13:09:46;96698.59;;;11.43;61.88
48800;BME280;34611;47.964;7.982;2023-04-26T13:16:46;96687.38;;;11.43;62.03
48800;BME280;34611;47.964;7.982;2023-04-26T13:23:49;96696.84;;;11.44;61.79
48800;BME280;34611;47.964;7.982;2023-04-26T13:30:49;96689.03;;;11.44;61.94
48800;BME280;34611;47.964;7.982;2023-04-26T13:37:51;96694.22;;;11.44;61.92
48800;BME280;34611;47.964;7.982;2023-04-26T13:44:51;96689.03;;;11.44;61.93
48800;BME280;34611;47.964;7.982;2023-04-26T13:51:52;96693.38;;;11.43;62.06
48800;BME280;34611;47.964;7.982;2023-04-26T13:58:55;96686.56;;;11.42;62.19
48800;BME280;34611;47.964;7.982;2023-04-26T14:05:55;96685.56;;;11.43;62.11
48800;BME280;34611;47.964;7.982;2023-04-26T14:12:55;96684.63;;;11.44;62.11
48800;BME280;34611;47.964;7.982;2023-04-26T14:19:56;96682.16;;;11.43;61.98
48800;BME280;34611;47.964;7.982;2023-04-26T14:26:56;96676.97;;;11.43;62.17
48800;BME280;34611;47.964;7.982;2023-04-26T14:33:59;96689.03;;;11.44;62.14
48800;BME280;34611;47.964;7.982;2023-04-26T14:41:00;96683.81;;;11.44;62.20
48800;BME280;34611;47.964;7.982;2023-04-26T14:48:00;96677.78;;;11.43;62.17
48800;BME280;34611;47.964;7.982;2023-04-26T14:55:01;96673.41;;;11.44;62.31
48800;BME280;34611;47.964;7.982;2023-04-26T15:02:02;96663.94;;;11.43;62.13
48800;BME280;34611;47.964;7.982;2023-04-26T15:09:02;96667.34;;;11.43;62.01
48800;BME280;34611;47.964;7.982;2023-04-26T15:16:03;96668.22;;;11.44;62.19
48800;BME280;34611;47.964;7.982;2023-04-26T15:23:04;96667.91;;;11.47;62.29
48800;BME280;34611;47.964;7.982;2023-04-26T15:30:05;96662.16;;;11.43;62.42
48800;BME280;34611;47.964;7.982;2023-04-26T15:37:05;96663.00;;;11.44;62.62
48800;BME280;34611;47.964;7.982;2023-04-26T15:44:05;96662.03;;;11.45;62.49
48800;BME280;34611;47.964;7.982;2023-04-26T15:51:06;96659.56;;;11.43;62.51
48800;BME280;34611;47.964;7.982;2023-04-26T15:58:06;96675.03;;;11.45;62.58
48800;BME280;34611;47.964;7.982;2023-04-26T16:05:06;96682.84;;;11.45;62.72
48800;BME280;34611;47.964;7.982;2023-04-26T16:12:07;96678.63;;;11.44;62.64
48800;BME280;34611;47.964;7.982;2023-04-26T16:19:07;96669.84;;;11.45;62.65
48800;BME280;34611;47.964;7.982;2023-04-26T16:26:07;96675.03;;;11.45;62.83
48800;BME280;34611;47.964;7.982;2023-04-26T16:33:08;96673.41;;;11.44;62.57
48800;BME280;34611;47.964;7.982;2023-04-26T16:40:09;96672.44;;;11.45;62.71
48800;BME280;34611;47.964;7.982;2023-04-26T16:47:10;96672.44;;;11.45;62.84
48800;BME280;34611;47.964;7.982;2023-04-26T16:54:10;96669.03;;;11.44;62.75
48800;BME280;34611;47.964;7.982;2023-04-26T17:01:10;96664.63;;;11.45;62.67
48800;BME280;34611;47.964;7.982;2023-04-26T17:08:11;96685.44;;;11.45;62.94
48800;BME280;34611;47.964;7.982;2023-04-26T17:15:11;96688.06;;;11.45;62.67
48800;BME280;34611;47.964;7.982;2023-04-26T17:22:12;96673.41;;;11.44;62.77
48800;BME280;34611;47.964;7.982;2023-04-26T17:29:12;96691.47;;;11.45;62.89
48800;BME280;34611;47.964;7.982;2023-04-26T17:36:13;96696.69;;;11.45;62.94
48800;BME280;34611;47.964;7.982;2023-04-26T17:43:13;96688.88;;;11.45;62.88
48800;BME280;34611;47.964;7.982;2023-04-26T17:50:13;96699.28;;;11.45;62.94
48800;BME280;34611;47.964;7.982;2023-04-26T17:57:14;96701.06;;;11.45;62.96
48800;BME280;34611;47.964;7.982;2023-04-26T18:04:19;96700.13;;;11.46;62.83
48800;BME280;34611;47.964;7.982;2023-04-26T18:11:19;96706.16;;;11.46;63.06
48800;BME280;34611;47.964;7.982;2023-04-26T18:18:21;96715.75;;;11.46;62.88
48800;BME280;34611;47.964;7.982;2023-04-26T18:25:21;96724.38;;;11.46;62.93
48800;BME280;34611;47.964;7.982;2023-04-26T18:32:21;96724.38;;;11.46;63.06
48800;BME280;34611;47.964;7.982;2023-04-26T18:39:22;96731.34;;;11.46;63.15
48800;BME280;34611;47.964;7.982;2023-04-26T18:46:22;96721.75;;;11.46;62.95
48800;BME280;34611;47.964;7.982;2023-04-26T18:53:23;96737.38;;;11.46;63.26
48800;BME280;34611;47.964;7.982;2023-04-26T19:00:23;96737.50;;;11.45;63.25
48800;BME280;34611;47.964;7.982;2023-04-26T19:07:23;96745.19;;;11.46;63.06
48800;BME280;34611;47.964;7.982;2023-04-26T19:14:24;96758.19;;;11.46;63.04
48800;BME280;34611;47.964;7.982;2023-04-26T19:21:24;96766.81;;;11.47;63.28
48800;BME280;34611;47.964;7.982;2023-04-26T19:28:24;96775.44;;;11.47;63.25
48800;BME280;34611;47.964;7.982;2023-04-26T19:35:24;96783.25;;;11.47;63.25
48800;BME280;34611;47.964;7.982;2023-04-26T19:42:25;96782.44;;;11.47;63.32
48800;BME280;34611;47.964;7.982;2023-04-26T19:49:28;96791.22;;;11.46;63.31
48800;BME280;34611;47.964;7.982;2023-04-26T19:56:28;96794.66;;;11.46;63.38
48800;BME280;34611;47.964;7.982;2023-04-26T20:03:28;96803.28;;;11.47;63.29
48800;BME280;34611;47.964;7.982;2023-04-26T20:10:29;96806.69;;;11.47;63.38
48800;BME280;34611;47.964;7.982;2023-04-26T20:17:30;96803.28;;;11.47;63.48
48800;BME280;34611;47.964;7.982;2023-04-26T20:24:31;96804.09;;;11.47;63.48
48800;BME280;34611;47.964;7.982;2023-04-26T20:31:32;96811.88;;;11.47;63.32
48800;BME280;34611;47.964;7.982;2023-04-26T20:38:32;96804.94;;;11.48;63.24
48800;BME280;34611;47.964;7.982;2023-04-26T20:45:32;96798.88;;;11.47;63.50
48800;BME280;34611;47.964;7.982;2023-04-26T20:52:33;96799.84;;;11.46;63.31
48800;BME280;34611;47.964;7.982;2023-04-26T20:59:33;96797.13;;;11.48;63.27
48800;BME280;34611;47.964;7.982;2023-04-26T21:06:33;96802.31;;;11.48;63.37
48800;BME280;34611;47.964;7.982;2023-04-26T21:13:33;96806.69;;;11.47;63.62
48800;BME280;34611;47.964;7.982;2023-04-26T21:20:34;96808.47;;;11.47;63.48
48800;BME280;34611;47.964;7.982;2023-04-26T21:27:34;96814.50;;;11.47;63.56
48800;BME280;34611;47.964;7.982;2023-04-26T21:34:34;96824.78;;;11.49;63.63
48800;BME280;34611;47.964;7.982;2023-04-26T21:41:36;96816.16;;;11.48;63.54
48800;BME280;34611;47.964;7.982;2023-04-26T21:48:36;96819.69;;;11.47;63.52
48800;BME280;34611;47.964;7.982;2023-04-26T21:55:38;96827.50;;;11.47;63.52
48800;BME280;34611;47.964;7.982;2023-04-26T22:02:38;96825.75;;;11.48;63.59
48800;BME280;34611;47.964;7.982;2023-04-26T22:09:38;96819.69;;;11.47;63.58
48800;BME280;34611;47.964;7.982;2023-04-26T22:16:39;96828.34;;;11.48;63.54
48800;BME280;34611;47.964;7.982;2023-04-26T22:23:39;96832.72;;;11.47;63.48
48800;BME280;34611;47.964;7.982;2023-04-26T22:30:39;96836.97;;;11.48;63.41
48800;BME280;34611;47.964;7.982;2023-04-26T22:37:39;96833.56;;;11.48;63.67
48800;BME280;34611;47.964;7.982;2023-04-26T22:44:40;96838.63;;;11.49;63.55
48800;BME280;34611;47.964;7.982;2023-04-26T22:51:40;96836.16;;;11.48;63.60
48800;BME280;34611;47.964;7.982;2023-04-26T22:58:41;96842.19;;;11.48;63.67
48800;BME280;34611;47.964;7.982;2023-04-26T23:05:41;96837.94;;;11.47;63.66
48800;BME280;34611;47.964;7.982;2023-04-26T23:12:42;96840.41;;;11.49;63.84
48800;BME280;34611;47.964;7.982;2023-04-26T23:19:42;96843.00;;;11.49;63.66
48800;BME280;34611;47.964;7.982;2023-04-26T23:26:42;96853.41;;;11.49;63.77
48800;BME280;34611;47.964;7.982;2023-04-26T23:33:43;96843.97;;;11.48;63.76
48800;BME280;34611;47.964;7.982;2023-04-26T23:40:43;96843.97;;;11.48;63.75
48800;BME280;34611;47.964;7.982;2023-04-26T23:47:43;96843.00;;;11.49;63.64
48800;BME280;34611;47.964;7.982;2023-04-26T23:54:43;96832.59;;;11.49;63.69
